createdAt,value
2022-08-11T00:01:52.378Z,21.65
2022-08-11T00:04:21.311Z,21.66
2022-08-11T00:06:48.594Z,21.57
2022-08-11T00:09:18.389Z,21.56
2022-08-11T00:11:53.051Z,21.67
2022-08-11T00:14:22.081Z,21.57
2022-08-11T00:17:15.563Z,21.56
2022-08-11T00:20:12.793Z,21.45
2022-08-11T00:22:33.060Z,21.45
2022-08-11T00:25:02.554Z,21.45
2022-08-11T00:27:33.427Z,21.41
2022-08-11T00:30:00.956Z,21.49
2022-08-11T00:32:28.398Z,21.39
2022-08-11T00:35:56.047Z,21.53
2022-08-11T00:37:50.000Z,21.42
2022-08-11T00:40:54.227Z,21.38
2022-08-11T00:43:48.100Z,21.21
2022-08-11T00:46:15.391Z,21.26
2022-08-11T00:48:50.844Z,21.28
2022-08-11T00:51:57.655Z,21.24
2022-08-11T00:54:50.772Z,21.22
2022-08-11T00:57:45.693Z,21.22
2022-08-11T01:00:20.065Z,21.31
2022-08-11T01:03:13.280Z,21.22
2022-08-11T01:06:03.026Z,21.14
2022-08-11T01:09:01.246Z,21.21
2022-08-11T01:11:56.035Z,21.18
2022-08-11T01:14:48.452Z,21.16
2022-08-11T01:17:49.724Z,21.22
2022-08-11T01:20:46.906Z,21.16
2022-08-11T01:23:34.955Z,21.04
2022-08-11T01:26:05.255Z,21.01
2022-08-11T01:29:17.823Z,21.02
2022-08-11T01:32:32.745Z,20.76
2022-08-11T01:35:18.529Z,20.85
2022-08-11T01:38:07.378Z,20.63
2022-08-11T01:40:52.948Z,20.50
2022-08-11T01:43:51.847Z,20.49
2022-08-11T01:46:31.581Z,20.44
2022-08-11T01:50:05.907Z,20.41
2022-08-11T01:52:30.170Z,20.40
2022-08-11T01:55:22.221Z,20.29
2022-08-11T01:58:16.513Z,20.41
2022-08-11T02:01:21.859Z,20.41
2022-08-11T02:04:08.273Z,20.39
2022-08-11T02:06:55.895Z,20.30
2022-08-11T02:09:29.364Z,20.36
2022-08-11T02:12:03.467Z,20.29
2022-08-11T02:15:04.499Z,20.25
2022-08-11T02:17:57.910Z,20.29
2022-08-11T02:21:10.736Z,20.26
2022-08-11T02:24:07.188Z,20.25
2022-08-11T02:26:44.278Z,20.18
2022-08-11T02:29:47.708Z,20.19
2022-08-11T02:32:36.802Z,20.05
2022-08-11T02:35:32.960Z,20.10
2022-08-11T02:38:17.319Z,20.09
2022-08-11T02:40:58.047Z,20.08
2022-08-11T02:43:40.729Z,20.06
2022-08-11T02:46:20.207Z,20.06
2022-08-11T02:49:15.128Z,20.00
2022-08-11T02:52:28.568Z,19.91
2022-08-11T02:54:55.813Z,19.85
2022-08-11T02:57:40.880Z,19.81
2022-08-11T03:00:09.292Z,19.78
2022-08-11T03:02:54.723Z,19.71
2022-08-11T03:05:38.992Z,19.69
2022-08-11T03:08:51.416Z,19.65
2022-08-11T03:11:59.907Z,19.69
2022-08-11T03:15:01.311Z,19.55
2022-08-11T03:17:42.280Z,19.50
2022-08-11T03:20:38.335Z,19.47
2022-08-11T03:23:26.373Z,19.41
2022-08-11T03:25:55.890Z,19.35
2022-08-11T03:28:57.262Z,19.44
2022-08-11T03:31:49.768Z,19.46
2022-08-11T03:34:22.616Z,19.44
2022-08-11T03:37:34.919Z,19.44
2022-08-11T03:40:58.234Z,19.43
2022-08-11T03:43:45.588Z,19.37
2022-08-11T03:47:02.009Z,19.33
2022-08-11T03:50:07.122Z,19.46
2022-08-11T03:53:04.858Z,19.50
2022-08-11T03:56:01.350Z,19.35
2022-08-11T03:58:46.143Z,19.37
2022-08-11T04:01:43.130Z,19.46
2022-08-11T04:04:19.640Z,19.37
2022-08-11T04:07:12.204Z,19.37
2022-08-11T04:10:11.514Z,19.38
2022-08-11T04:13:12.891Z,19.31
2022-08-11T04:16:12.167Z,19.30
2022-08-11T04:19:04.747Z,19.44
2022-08-11T04:22:09.752Z,19.50
2022-08-11T04:24:58.738Z,19.43
2022-08-11T04:27:50.989Z,19.40
2022-08-11T04:30:56.016Z,19.41
2022-08-11T04:33:37.757Z,19.54
2022-08-11T04:36:09.814Z,19.65
2022-08-11T04:39:04.540Z,19.61
2022-08-11T04:42:21.635Z,19.67
2022-08-11T04:44:58.146Z,19.71
2022-08-11T04:48:01.772Z,19.71
2022-08-11T04:51:16.418Z,19.68
2022-08-11T04:54:13.748Z,19.75
2022-08-11T04:56:59.669Z,19.81
2022-08-11T05:00:17.718Z,19.74
2022-08-11T05:03:22.764Z,19.86
2022-08-11T05:06:30.114Z,19.81
2022-08-11T05:09:24.961Z,19.99
2022-08-11T05:12:04.627Z,20.08
2022-08-11T05:14:55.705Z,20.08
2022-08-11T05:18:11.202Z,20.15
2022-08-11T05:21:04.980Z,20.19
2022-08-11T05:23:52.299Z,20.26
2022-08-11T05:26:46.455Z,20.28
2022-08-11T05:29:56.593Z,20.37
2022-08-11T05:32:42.667Z,20.46
2022-08-11T05:35:10.127Z,20.44
2022-08-11T05:38:02.963Z,20.57
2022-08-11T05:40:51.252Z,20.61
2022-08-11T05:43:39.648Z,20.60
2022-08-11T05:46:46.228Z,20.83
2022-08-11T05:49:33.162Z,20.91
2022-08-11T05:52:19.112Z,20.92
2022-08-11T05:55:07.462Z,20.95
2022-08-11T05:57:49.482Z,20.99
2022-08-11T06:00:19.600Z,21.07
2022-08-11T06:02:50.150Z,21.07
2022-08-11T06:05:19.407Z,21.04
2022-08-11T06:07:49.853Z,21.04
2022-08-11T06:10:30.552Z,21.18
2022-08-11T06:12:57.952Z,21.39
2022-08-11T06:15:25.481Z,21.38
2022-08-11T06:17:54.312Z,21.56
2022-08-11T06:20:22.334Z,21.52
2022-08-11T06:22:57.127Z,21.55
2022-08-11T06:25:36.124Z,21.50
2022-08-11T06:28:05.978Z,21.59
2022-08-11T06:30:42.913Z,21.50
2022-08-11T06:33:15.451Z,21.65
2022-08-11T06:36:07.733Z,21.62
2022-08-11T06:38:47.847Z,22.03
2022-08-11T06:41:34.648Z,22.21
2022-08-11T06:44:14.311Z,22.30
2022-08-11T06:46:52.028Z,24.09
2022-08-11T06:49:40.077Z,26.41
2022-08-11T06:52:12.809Z,28.02
2022-08-11T06:54:58.285Z,29.22
2022-08-11T06:57:44.359Z,29.44
2022-08-11T07:00:30.547Z,29.55
2022-08-11T07:03:11.025Z,30.30
2022-08-11T07:06:19.691Z,30.88
2022-08-11T07:09:24.615Z,31.15
2022-08-11T07:12:19.709Z,31.91
2022-08-11T07:15:12.829Z,31.73
2022-08-11T07:17:49.525Z,30.96
2022-08-11T07:20:36.270Z,30.51
2022-08-11T07:23:22.672Z,30.75
2022-08-11T07:26:13.895Z,31.53
2022-08-11T07:28:58.841Z,32.39
2022-08-11T07:31:34.318Z,31.40
2022-08-11T07:34:26.020Z,31.50
2022-08-11T07:36:57.911Z,32.15
2022-08-11T07:39:31.786Z,32.38
2022-08-11T07:42:00.238Z,32.66
2022-08-11T07:44:35.094Z,32.72
2022-08-11T07:47:21.911Z,33.03
2022-08-11T07:50:08.173Z,33.28
2022-08-11T07:52:37.310Z,32.32
2022-08-11T07:55:49.249Z,31.88
2022-08-11T07:58:37.762Z,33.13
2022-08-11T08:01:32.041Z,33.18
2022-08-11T08:04:18.438Z,32.29
2022-08-11T08:07:04.447Z,32.94
2022-08-11T08:09:52.638Z,33.00
2022-08-11T08:12:42.603Z,32.65
2022-08-11T08:15:30.329Z,32.91
2022-08-11T08:18:09.776Z,33.45
2022-08-11T08:20:52.577Z,32.56
2022-08-11T08:23:33.918Z,31.90
2022-08-11T08:26:04.645Z,30.65
2022-08-11T08:28:32.736Z,31.50
2022-08-11T08:31:00.209Z,32.14
2022-08-11T08:33:31.098Z,32.32
2022-08-11T08:36:12.140Z,32.18
2022-08-11T08:38:57.824Z,32.73
2022-08-11T08:41:30.456Z,32.99
2022-08-11T08:44:20.981Z,33.41
2022-08-11T08:46:53.551Z,32.04
2022-08-11T08:49:24.296Z,32.75
2022-08-11T08:52:18.635Z,32.27
2022-08-11T08:54:43.685Z,32.53
2022-08-11T08:57:12.323Z,32.35
2022-08-11T08:59:48.999Z,30.47
2022-08-11T09:02:34.859Z,28.91
2022-08-11T09:05:06.179Z,27.61
2022-08-11T09:07:38.589Z,27.37
2022-08-11T09:10:08.973Z,27.10
2022-08-11T09:12:39.252Z,26.81
2022-08-11T09:15:10.608Z,27.00
2022-08-11T09:18:03.878Z,26.67
2022-08-11T09:20:34.731Z,26.45
2022-08-11T09:26:33.756Z,27.14
2022-08-11T09:29:01.519Z,26.88
2022-08-11T09:31:34.576Z,26.54
2022-08-11T09:34:06.575Z,26.93
2022-08-11T09:36:52.627Z,26.95
2022-08-11T09:39:38.644Z,27.17
2022-08-11T09:42:06.392Z,27.43
2022-08-11T09:44:52.511Z,27.58
2022-08-11T09:47:28.682Z,27.78
2022-08-11T09:50:01.002Z,27.58
2022-08-11T09:52:37.085Z,27.65
2022-08-11T09:55:11.336Z,27.60
2022-08-11T09:57:58.614Z,27.53
2022-08-11T10:00:40.675Z,27.51
2022-08-11T10:03:13.798Z,27.61
2022-08-11T10:06:04.554Z,27.61
2022-08-11T10:08:34.896Z,27.80
2022-08-11T10:11:02.200Z,27.92
2022-08-11T10:14:31.583Z,28.28
2022-08-11T10:16:43.303Z,28.01
2022-08-11T10:19:10.801Z,28.22
2022-08-11T10:21:41.058Z,28.28
2022-08-11T10:24:27.220Z,28.50
2022-08-11T10:26:55.498Z,28.66
2022-08-11T10:29:51.092Z,28.32
2022-08-11T10:32:49.398Z,28.52
2022-08-11T10:35:27.832Z,28.45
2022-08-11T10:38:08.747Z,27.65
2022-08-11T10:40:40.457Z,27.61
2022-08-11T10:43:13.738Z,28.26
2022-08-11T10:46:03.421Z,28.74
2022-08-11T10:48:32.352Z,28.32
2022-08-11T10:51:15.046Z,28.35
2022-08-11T10:54:04.925Z,28.83
2022-08-11T10:56:59.709Z,28.64
2022-08-11T10:59:28.434Z,28.13
2022-08-11T11:01:56.154Z,27.82
2022-08-11T11:04:28.085Z,28.13
2022-08-11T11:07:17.309Z,28.66
2022-08-11T11:09:51.350Z,28.11
2022-08-11T11:12:44.622Z,28.15
2022-08-11T11:15:30.596Z,28.53
2022-08-11T11:18:04.906Z,28.86
2022-08-11T11:20:43.808Z,29.19
2022-08-11T11:23:21.475Z,29.00
2022-08-11T11:26:11.958Z,29.12
2022-08-11T11:29:17.116Z,29.86
2022-08-11T11:32:32.384Z,29.66
2022-08-11T11:35:31.972Z,29.67
2022-08-11T11:38:04.916Z,29.63
2022-08-11T11:40:33.246Z,29.82
2022-08-11T11:43:00.676Z,30.09
2022-08-11T11:45:28.013Z,30.24
2022-08-11T11:47:56.241Z,30.27
2022-08-11T11:50:33.105Z,30.24
2022-08-11T11:53:01.633Z,29.24
2022-08-11T11:55:29.212Z,29.52
2022-08-11T11:58:18.741Z,29.35
2022-08-11T12:01:05.731Z,29.92
2022-08-11T12:03:34.097Z,30.02
2022-08-11T12:06:01.640Z,30.20
2022-08-11T12:08:29.123Z,30.41
2022-08-11T12:11:17.759Z,30.44
2022-08-11T12:13:46.567Z,30.24
2022-08-11T12:16:32.871Z,30.58
2022-08-11T12:19:03.330Z,30.37
2022-08-11T12:21:30.723Z,30.71
2022-08-11T12:24:18.340Z,30.62
2022-08-11T12:27:16.201Z,30.52
2022-08-11T12:29:51.408Z,30.28
2022-08-11T12:32:32.320Z,29.79
2022-08-11T12:34:59.783Z,29.14
2022-08-11T12:37:32.033Z,28.91
2022-08-11T12:40:50.105Z,28.69
2022-08-11T12:43:38.507Z,28.60
2022-08-11T12:46:09.062Z,28.67
2022-08-11T12:49:02.016Z,29.24
2022-08-11T12:52:12.270Z,29.59
2022-08-11T12:54:52.425Z,30.14
2022-08-11T12:57:47.228Z,30.33
2022-08-11T13:00:34.003Z,29.61
2022-08-11T13:03:20.123Z,30.02
2022-08-11T13:05:47.835Z,29.18
2022-08-11T13:08:15.581Z,29.46
2022-08-11T13:11:03.168Z,29.46
2022-08-11T13:13:54.340Z,29.55
2022-08-11T13:16:18.179Z,29.85
2022-08-11T13:18:45.702Z,30.43
2022-08-11T13:21:20.725Z,30.85
2022-08-11T13:24:00.759Z,30.69
2022-08-11T13:26:43.353Z,29.92
2022-08-11T13:29:19.028Z,29.38
2022-08-11T13:31:46.863Z,29.85
2022-08-11T13:34:16.273Z,30.38
2022-08-11T13:36:44.055Z,30.47
2022-08-11T13:39:11.809Z,30.20
2022-08-11T13:41:41.925Z,29.90
2022-08-11T13:44:10.453Z,30.17
2022-08-11T13:46:38.487Z,30.51
2022-08-11T13:49:09.153Z,29.82
2022-08-11T13:51:40.565Z,29.58
2022-08-11T13:54:22.157Z,29.12
2022-08-11T13:56:52.992Z,29.01
2022-08-11T13:59:24.115Z,29.31
2022-08-11T14:02:21.692Z,29.27
2022-08-11T14:04:57.454Z,29.11
2022-08-11T14:07:36.284Z,29.12
2022-08-11T14:10:04.510Z,29.42
2022-08-11T14:12:51.202Z,29.92
2022-08-11T14:15:33.401Z,30.10
2022-08-11T14:18:06.957Z,29.85
2022-08-11T14:20:54.871Z,30.30
2022-08-11T14:23:26.902Z,29.73
2022-08-11T14:26:13.887Z,29.36
2022-08-11T14:28:45.120Z,29.18
2022-08-11T14:31:15.951Z,29.36
2022-08-11T14:33:59.747Z,29.86
2022-08-11T14:36:37.121Z,29.15
2022-08-11T14:39:08.416Z,28.81
2022-08-11T14:42:09.928Z,28.69
2022-08-11T14:45:03.341Z,28.74
2022-08-11T14:47:35.293Z,28.50
2022-08-11T14:50:10.762Z,28.40
2022-08-11T14:52:55.711Z,28.66
2022-08-11T14:55:43.469Z,28.67
2022-08-11T14:58:11.432Z,28.23
2022-08-11T15:00:38.894Z,28.36
2022-08-11T15:03:13.455Z,28.49
2022-08-11T15:05:56.981Z,28.18
2022-08-11T15:08:48.883Z,28.05
2022-08-11T15:11:36.820Z,27.87
2022-08-11T15:14:06.752Z,27.72
2022-08-11T15:16:53.147Z,27.68
2022-08-11T15:19:23.594Z,27.67
2022-08-11T15:22:11.589Z,27.88
2022-08-11T15:24:39.473Z,27.85
2022-08-11T15:27:30.472Z,27.87
2022-08-11T15:30:29.874Z,27.80
2022-08-11T15:33:26.907Z,27.67
2022-08-11T15:36:14.065Z,27.68
2022-08-11T15:39:08.408Z,27.57
2022-08-11T15:42:09.984Z,27.62
2022-08-11T15:45:02.679Z,27.47
2022-08-11T15:47:46.077Z,27.34
2022-08-11T15:50:15.772Z,27.41
2022-08-11T15:52:49.984Z,27.23
2022-08-11T15:55:17.708Z,27.19
2022-08-11T15:58:05.813Z,27.29
2022-08-11T16:01:03.677Z,27.26
2022-08-11T16:04:07.223Z,27.30
2022-08-11T16:06:49.279Z,27.30
2022-08-11T16:09:28.423Z,27.24
2022-08-11T16:12:04.342Z,27.04
2022-08-11T16:14:51.818Z,27.10
2022-08-11T16:17:19.659Z,27.00
2022-08-11T16:19:47.626Z,27.19
2022-08-11T16:22:15.213Z,27.36
2022-08-11T16:27:05.716Z,27.27
2022-08-11T16:27:34.194Z,27.24
2022-08-11T16:30:01.639Z,27.07
2022-08-11T16:32:29.051Z,27.14
2022-08-11T16:35:17.881Z,27.23
2022-08-11T16:38:03.836Z,27.19
2022-08-11T16:40:31.562Z,27.07
2022-08-11T16:43:17.453Z,26.93
2022-08-11T16:46:03.607Z,27.00
2022-08-11T16:48:37.213Z,26.88
2022-08-11T16:51:07.018Z,26.91
2022-08-11T16:54:00.149Z,26.86
2022-08-11T16:56:25.642Z,26.68
2022-08-11T16:59:16.274Z,26.75
2022-08-11T17:01:50.473Z,26.76
2022-08-11T17:04:41.870Z,26.65
2022-08-11T17:07:40.631Z,26.47
2022-08-11T17:10:50.560Z,26.35
2022-08-11T17:13:28.448Z,26.24
2022-08-11T17:16:06.935Z,26.28
2022-08-11T17:18:58.335Z,26.21
2022-08-11T17:22:08.561Z,26.28
2022-08-11T17:24:38.224Z,26.23
2022-08-11T17:27:07.943Z,26.14
2022-08-11T17:29:53.713Z,26.16
2022-08-11T17:33:00.472Z,26.13
2022-08-11T17:35:33.459Z,26.08
2022-08-11T17:38:09.177Z,25.93
2022-08-11T17:40:38.869Z,25.93
2022-08-11T17:43:27.854Z,26.04
2022-08-11T17:46:10.750Z,25.96
2022-08-11T17:48:47.729Z,26.00
2022-08-11T17:51:38.802Z,26.01
2022-08-11T17:54:25.493Z,26.00
2022-08-11T17:57:20.375Z,25.94
2022-08-11T17:59:53.195Z,26.01
2022-08-11T18:03:02.163Z,25.94
2022-08-11T18:05:31.502Z,25.89
2022-08-11T18:08:20.297Z,25.77
2022-08-11T18:11:06.312Z,25.79
2022-08-11T18:13:54.416Z,25.82
2022-08-11T18:16:40.638Z,25.76
2022-08-11T18:19:26.667Z,25.67
2022-08-11T18:22:17.175Z,25.59
2022-08-11T18:25:07.805Z,25.52
2022-08-11T18:27:54.012Z,25.52
2022-08-11T18:30:40.127Z,25.58
2022-08-11T18:33:50.654Z,25.61
2022-08-11T18:36:41.762Z,25.59
2022-08-11T18:39:29.918Z,25.49
2022-08-11T18:42:17.359Z,25.35
2022-08-11T18:45:17.605Z,25.42
2022-08-11T18:48:03.656Z,25.38
2022-08-11T18:50:53.564Z,25.34
2022-08-11T18:53:56.281Z,25.25
2022-08-11T18:56:43.706Z,25.22
2022-08-11T18:59:29.572Z,25.12
2022-08-11T19:02:15.705Z,25.14
2022-08-11T19:05:01.605Z,25.18
2022-08-11T19:07:47.910Z,25.03
2022-08-11T19:10:34.117Z,25.07
2022-08-11T19:13:20.042Z,25.12
2022-08-11T19:16:06.027Z,25.18
2022-08-11T19:18:52.240Z,24.99
2022-08-11T19:21:38.467Z,25.03
2022-08-11T19:24:24.888Z,24.98
2022-08-11T19:27:11.881Z,25.04
2022-08-11T19:30:07.591Z,24.78
2022-08-11T19:32:58.822Z,24.76
2022-08-11T19:35:45.083Z,24.78
2022-08-11T19:38:31.124Z,24.80
2022-08-11T19:41:45.432Z,24.59
2022-08-11T19:44:24.093Z,24.57
2022-08-11T19:47:10.193Z,24.52
2022-08-11T19:49:56.067Z,24.36
2022-08-11T19:52:42.527Z,24.35
2022-08-11T19:55:28.574Z,24.30
2022-08-11T19:58:14.560Z,24.16
2022-08-11T20:01:00.955Z,24.18
2022-08-11T20:03:46.955Z,24.10
2022-08-11T20:06:32.873Z,23.92
2022-08-11T20:09:19.464Z,23.88
2022-08-11T20:12:08.306Z,23.79
2022-08-11T20:14:55.962Z,23.82
2022-08-11T20:17:43.586Z,23.61
2022-08-11T20:20:30.239Z,23.53
2022-08-11T20:23:16.982Z,23.57
2022-08-11T20:26:27.835Z,23.64
2022-08-11T20:29:09.864Z,23.46
2022-08-11T20:31:55.805Z,23.44
2022-08-11T20:34:41.894Z,23.26
2022-08-11T20:37:27.772Z,23.19
2022-08-11T20:40:13.501Z,23.09
2022-08-11T20:42:59.389Z,23.10
2022-08-11T20:45:56.701Z,23.06
2022-08-11T20:48:45.665Z,23.06
2022-08-11T20:51:38.615Z,23.04
2022-08-11T20:54:38.390Z,23.02
2022-08-11T20:57:54.461Z,22.92
2022-08-11T21:00:40.571Z,22.93
2022-08-11T21:03:36.044Z,23.00
2022-08-11T21:10:00.931Z,23.00
2022-08-11T21:12:43.453Z,23.00
2022-08-11T21:15:46.916Z,22.92
2022-08-11T21:18:36.182Z,22.85
2022-08-11T21:21:25.033Z,22.89
2022-08-11T21:24:11.949Z,22.89
2022-08-11T21:27:03.440Z,22.88
2022-08-11T21:29:50.409Z,22.72
2022-08-11T21:32:36.181Z,22.68
2022-08-11T21:35:22.426Z,22.51
2022-08-11T21:38:09.045Z,22.56
2022-08-11T21:40:54.942Z,22.47
2022-08-11T21:43:40.967Z,22.44
2022-08-11T21:46:27.149Z,22.22
2022-08-11T21:49:18.766Z,22.21
2022-08-11T21:52:04.810Z,22.15
2022-08-11T21:54:50.749Z,22.11
2022-08-11T21:57:36.767Z,22.08
2022-08-11T22:00:34.298Z,22.05
2022-08-11T22:03:20.135Z,22.05
2022-08-11T22:06:06.133Z,21.98
2022-08-11T22:08:52.125Z,21.93
2022-08-11T22:11:39.257Z,21.86
2022-08-11T22:14:25.078Z,21.84
2022-08-11T22:17:11.117Z,21.75
2022-08-11T22:19:58.005Z,21.73
2022-08-11T22:22:53.262Z,21.79
2022-08-11T22:25:51.240Z,21.79
2022-08-11T22:28:38.638Z,21.73
2022-08-11T22:31:25.088Z,21.63
2022-08-11T22:34:11.188Z,21.69
2022-08-11T22:36:57.637Z,21.67
2022-08-11T22:39:44.195Z,21.57
2022-08-11T22:42:33.543Z,21.52
2022-08-11T22:45:20.642Z,21.49
2022-08-11T22:48:06.648Z,21.52
2022-08-11T22:50:53.570Z,21.49
2022-08-11T22:53:57.545Z,21.52
2022-08-11T22:56:46.589Z,21.45
2022-08-11T22:59:33.162Z,21.42
2022-08-11T23:02:19.644Z,21.32
2022-08-11T23:05:07.535Z,21.16
2022-08-11T23:07:54.432Z,21.08
2022-08-11T23:10:40.416Z,21.09
2022-08-11T23:13:26.310Z,21.04
2022-08-11T23:16:15.856Z,21.01
2022-08-11T23:19:01.764Z,20.92
2022-08-11T23:21:48.090Z,20.95
2022-08-11T23:24:34.477Z,20.83
2022-08-11T23:27:21.062Z,20.85
2022-08-11T23:30:06.879Z,20.84
2022-08-11T23:32:52.862Z,20.76
2022-08-11T23:35:51.750Z,20.74
2022-08-11T23:38:42.775Z,20.77
2022-08-11T23:41:29.169Z,20.74
2022-08-11T23:44:15.098Z,20.67
2022-08-11T23:47:01.463Z,20.61
2022-08-11T23:49:47.525Z,20.66
2022-08-11T23:52:34.731Z,20.78
2022-08-11T23:55:21.840Z,20.80
2022-08-11T23:58:07.683Z,20.74
